sensor_id;sensor_type;location;lat;lon;timestamp;temperature;humidity
2723;DHT22;1369;53.216;10.396;2024-01-30T00:02:21;2.20;99.90
2723;DHT22;1369;53.216;10.396;2024-01-30T00:04:47;2.20;99.90
2723;DHT22;1369;53.216;10.396;2024-01-30T00:07:12;2.20;99.90
2723;DHT22;1369;53.216;10.396;2024-01-30T00:09:38;2.20;99.90
2723;DHT22;1369;53.216;10.396;2024-01-30T00:12:07;2.20;99.90
2723;DHT22;1369;53.216;10.396;2024-01-30T00:14:33;2.20;99.90
2723;DHT22;1369;53.216;10.396;2024-01-30T00:16:58;2.20;99.90
2723;DHT22;1369;53.216;10.396;2024-01-30T00:19:24;2.10;99.90
2723;DHT22;1369;53.216;10.396;2024-01-30T00:21:49;2.00;99.90
2723;DHT22;1369;53.216;10.396;2024-01-30T00:24:15;2.00;99.90
2723;DHT22;1369;53.216;10.396;2024-01-30T00:26:41;2.00;99.90
2723;DHT22;1369;53.216;10.396;2024-01-30T00:29:06;2.00;99.90
2723;DHT22;1369;53.216;10.396;2024-01-30T00:31:32;1.90;99.90
2723;DHT22;1369;53.216;10.396;2024-01-30T00:33:57;1.90;99.90
2723;DHT22;1369;53.216;10.396;2024-01-30T00:36:23;1.90;99.90
2723;DHT22;1369;53.216;10.396;2024-01-30T00:38:49;2.00;99.90
2723;DHT22;1369;53.216;10.396;2024-01-30T00:41:15;2.00;99.90
2723;DHT22;1369;53.216;10.396;2024-01-30T00:43:42;2.00;99.90
2723;DHT22;1369;53.216;10.396;2024-01-30T00:46:08;2.00;99.90
2723;DHT22;1369;53.216;10.396;2024-01-30T00:48:33;2.00;99.90
2723;DHT22;1369;53.216;10.396;2024-01-30T00:50:59;2.00;99.90
2723;DHT22;1369;53.216;10.396;2024-01-30T00:53:25;1.90;99.90
2723;DHT22;1369;53.216;10.396;2024-01-30T00:55:50;1.90;99.90
2723;DHT22;1369;53.216;10.396;2024-01-30T00:58:16;1.90;99.90
2723;DHT22;1369;53.216;10.396;2024-01-30T01:00:41;1.90;99.90
2723;DHT22;1369;53.216;10.396;2024-01-30T01:03:07;1.90;99.90
2723;DHT22;1369;53.216;10.396;2024-01-30T01:05:33;1.90;99.90
2723;DHT22;1369;53.216;10.396;2024-01-30T01:07:58;1.90;99.90
2723;DHT22;1369;53.216;10.396;2024-01-30T01:10:24;1.90;99.90
2723;DHT22;1369;53.216;10.396;2024-01-30T01:12:49;1.90;99.90
2723;DHT22;1369;53.216;10.396;2024-01-30T01:15:15;1.90;99.90
2723;DHT22;1369;53.216;10.396;2024-01-30T01:17:41;2.00;99.90
2723;DHT22;1369;53.216;10.396;2024-01-30T01:20:07;2.00;99.90
2723;DHT22;1369;53.216;10.396;2024-01-30T01:22:34;2.00;99.90
2723;DHT22;1369;53.216;10.396;2024-01-30T01:25:00;2.00;99.90
2723;DHT22;1369;53.216;10.396;2024-01-30T01:27:26;1.90;99.90
2723;DHT22;1369;53.216;10.396;2024-01-30T01:29:52;1.90;99.90
2723;DHT22;1369;53.216;10.396;2024-01-30T01:32:19;1.90;99.90
2723;DHT22;1369;53.216;10.396;2024-01-30T01:34:44;2.00;99.90
2723;DHT22;1369;53.216;10.396;2024-01-30T01:37:10;1.90;99.90
2723;DHT22;1369;53.216;10.396;2024-01-30T01:39:36;1.90;99.90
2723;DHT22;1369;53.216;10.396;2024-01-30T01:42:01;1.90;99.90
2723;DHT22;1369;53.216;10.396;2024-01-30T01:44:27;1.90;99.90
2723;DHT22;1369;53.216;10.396;2024-01-30T01:46:54;1.90;99.90
2723;DHT22;1369;53.216;10.396;2024-01-30T01:49:22;1.90;99.90
2723;DHT22;1369;53.216;10.396;2024-01-30T01:51:49;1.90;99.90
2723;DHT22;1369;53.216;10.396;2024-01-30T01:54:16;1.90;99.90
2723;DHT22;1369;53.216;10.396;2024-01-30T01:56:42;2.00;99.90
2723;DHT22;1369;53.216;10.396;2024-01-30T01:59:09;2.00;99.90
2723;DHT22;1369;53.216;10.396;2024-01-30T02:01:38;2.00;99.90
2723;DHT22;1369;53.216;10.396;2024-01-30T02:04:04;2.00;99.90
2723;DHT22;1369;53.216;10.396;2024-01-30T02:06:31;2.00;99.90
2723;DHT22;1369;53.216;10.396;2024-01-30T02:08:57;1.90;99.90
2723;DHT22;1369;53.216;10.396;2024-01-30T02:11:23;1.90;99.90
2723;DHT22;1369;53.216;10.396;2024-01-30T02:13:49;1.90;99.90
2723;DHT22;1369;53.216;10.396;2024-01-30T02:16:15;1.80;99.90
2723;DHT22;1369;53.216;10.396;2024-01-30T02:18:42;1.80;99.90
2723;DHT22;1369;53.216;10.396;2024-01-30T02:21:11;1.90;99.90
2723;DHT22;1369;53.216;10.396;2024-01-30T02:23:38;1.90;99.90
2723;DHT22;1369;53.216;10.396;2024-01-30T02:26:05;1.80;99.90
2723;DHT22;1369;53.216;10.396;2024-01-30T02:28:30;1.80;99.90
2723;DHT22;1369;53.216;10.396;2024-01-30T02:30:56;1.80;99.90
2723;DHT22;1369;53.216;10.396;2024-01-30T02:33:21;1.80;99.90
2723;DHT22;1369;53.216;10.396;2024-01-30T02:35:48;1.80;99.90
2723;DHT22;1369;53.216;10.396;2024-01-30T02:38:14;1.80;99.90
2723;DHT22;1369;53.216;10.396;2024-01-30T02:40:40;1.80;99.90
2723;DHT22;1369;53.216;10.396;2024-01-30T02:43:06;1.80;99.90
2723;DHT22;1369;53.216;10.396;2024-01-30T02:45:31;1.80;99.90
2723;DHT22;1369;53.216;10.396;2024-01-30T02:47:57;1.70;99.90
2723;DHT22;1369;53.216;10.396;2024-01-30T02:50:23;1.80;99.90
2723;DHT22;1369;53.216;10.396;2024-01-30T02:52:48;1.80;99.90
2723;DHT22;1369;53.216;10.396;2024-01-30T02:55:14;1.80;99.90
2723;DHT22;1369;53.216;10.396;2024-01-30T02:57:43;1.80;99.90
2723;DHT22;1369;53.216;10.396;2024-01-30T03:00:09;1.80;99.90
2723;DHT22;1369;53.216;10.396;2024-01-30T03:02:35;1.90;99.90
2723;DHT22;1369;53.216;10.396;2024-01-30T03:05:01;1.90;99.90
2723;DHT22;1369;53.216;10.396;2024-01-30T03:07:26;1.80;99.90
2723;DHT22;1369;53.216;10.396;2024-01-30T03:09:52;1.80;99.90
2723;DHT22;1369;53.216;10.396;2024-01-30T03:12:18;1.80;99.90
2723;DHT22;1369;53.216;10.396;2024-01-30T03:14:44;1.80;99.90
2723;DHT22;1369;53.216;10.396;2024-01-30T03:17:09;1.80;99.90
2723;DHT22;1369;53.216;10.396;2024-01-30T03:19:35;1.90;99.90
2723;DHT22;1369;53.216;10.396;2024-01-30T03:22:00;1.80;99.90
2723;DHT22;1369;53.216;10.396;2024-01-30T03:24:26;1.90;99.90
2723;DHT22;1369;53.216;10.396;2024-01-30T03:26:52;1.90;99.90
2723;DHT22;1369;53.216;10.396;2024-01-30T03:29:18;1.90;99.90
2723;DHT22;1369;53.216;10.396;2024-01-30T03:31:44;1.90;99.90
2723;DHT22;1369;53.216;10.396;2024-01-30T03:34:09;1.90;99.90
2723;DHT22;1369;53.216;10.396;2024-01-30T03:36:35;1.80;99.90
2723;DHT22;1369;53.216;10.396;2024-01-30T03:39:01;1.90;99.90
2723;DHT22;1369;53.216;10.396;2024-01-30T03:41:27;1.90;99.90
2723;DHT22;1369;53.216;10.396;2024-01-30T03:43:53;1.90;99.90
2723;DHT22;1369;53.216;10.396;2024-01-30T03:46:18;1.90;99.90
2723;DHT22;1369;53.216;10.396;2024-01-30T03:48:45;1.90;99.90
2723;DHT22;1369;53.216;10.396;2024-01-30T03:51:11;2.00;99.90
2723;DHT22;1369;53.216;10.396;2024-01-30T03:53:40;1.90;99.90
2723;DHT22;1369;53.216;10.396;2024-01-30T03:56:07;1.90;99.90
2723;DHT22;1369;53.216;10.396;2024-01-30T03:58:33;1.90;99.90
2723;DHT22;1369;53.216;10.396;2024-01-30T04:00:58;1.90;99.90
2723;DHT22;1369;53.216;10.396;2024-01-30T04:03:24;1.90;99.90
2723;DHT22;1369;53.216;10.396;2024-01-30T04:05:51;2.00;99.90
2723;DHT22;1369;53.216;10.396;2024-01-30T04:08:16;2.00;99.90
2723;DHT22;1369;53.216;10.396;2024-01-30T04:10:42;2.00;99.90
2723;DHT22;1369;53.216;10.396;2024-01-30T04:13:08;2.00;99.90
2723;DHT22;1369;53.216;10.396;2024-01-30T04:15:34;2.00;99.90
2723;DHT22;1369;53.216;10.396;2024-01-30T04:18:00;2.00;99.90
2723;DHT22;1369;53.216;10.396;2024-01-30T04:20:25;2.00;99.90
2723;DHT22;1369;53.216;10.396;2024-01-30T04:22:51;2.00;99.90
2723;DHT22;1369;53.216;10.396;2024-01-30T04:25:17;2.00;99.90
2723;DHT22;1369;53.216;10.396;2024-01-30T04:27:42;2.10;99.90
2723;DHT22;1369;53.216;10.396;2024-01-30T04:30:08;2.10;99.90
2723;DHT22;1369;53.216;10.396;2024-01-30T04:32:35;2.20;99.90
2723;DHT22;1369;53.216;10.396;2024-01-30T04:35:01;2.20;99.90
2723;DHT22;1369;53.216;10.396;2024-01-30T04:37:26;2.20;99.90
2723;DHT22;1369;53.216;10.396;2024-01-30T04:39:53;2.20;99.90
2723;DHT22;1369;53.216;10.396;2024-01-30T04:42:18;2.20;99.90
2723;DHT22;1369;53.216;10.396;2024-01-30T04:44:44;2.20;99.90
2723;DHT22;1369;53.216;10.396;2024-01-30T04:47:09;2.10;99.90
2723;DHT22;1369;53.216;10.396;2024-01-30T04:49:38;2.10;99.90
2723;DHT22;1369;53.216;10.396;2024-01-30T04:52:05;2.10;99.90
2723;DHT22;1369;53.216;10.396;2024-01-30T04:54:32;2.10;99.90
2723;DHT22;1369;53.216;10.396;2024-01-30T04:56:57;2.10;99.90
2723;DHT22;1369;53.216;10.396;2024-01-30T04:59:24;2.10;99.90
2723;DHT22;1369;53.216;10.396;2024-01-30T05:01:49;2.10;99.90
2723;DHT22;1369;53.216;10.396;2024-01-30T05:04:15;2.10;99.90
2723;DHT22;1369;53.216;10.396;2024-01-30T05:06:41;2.00;99.90
2723;DHT22;1369;53.216;10.396;2024-01-30T05:09:07;2.00;99.90
2723;DHT22;1369;53.216;10.396;2024-01-30T05:11:37;1.90;99.90
2723;DHT22;1369;53.216;10.396;2024-01-30T05:14:03;1.90;99.90
2723;DHT22;1369;53.216;10.396;2024-01-30T05:16:29;1.80;99.90
2723;DHT22;1369;53.216;10.396;2024-01-30T05:18:55;1.80;99.90
2723;DHT22;1369;53.216;10.396;2024-01-30T05:21:20;1.70;99.90
2723;DHT22;1369;53.216;10.396;2024-01-30T05:23:46;1.70;99.90
2723;DHT22;1369;53.216;10.396;2024-01-30T05:26:11;1.70;99.90
2723;DHT22;1369;53.216;10.396;2024-01-30T05:28:37;1.70;99.90
2723;DHT22;1369;53.216;10.396;2024-01-30T05:31:03;1.70;99.90
2723;DHT22;1369;53.216;10.396;2024-01-30T05:33:29;1.70;99.90
2723;DHT22;1369;53.216;10.396;2024-01-30T05:35:54;1.70;99.90
2723;DHT22;1369;53.216;10.396;2024-01-30T05:38:20;1.70;99.90
2723;DHT22;1369;53.216;10.396;2024-01-30T05:40:46;1.70;99.90
2723;DHT22;1369;53.216;10.396;2024-01-30T05:43:12;1.70;99.90
2723;DHT22;1369;53.216;10.396;2024-01-30T05:45:37;1.70;99.90
2723;DHT22;1369;53.216;10.396;2024-01-30T05:48:04;1.70;99.90
2723;DHT22;1369;53.216;10.396;2024-01-30T05:50:30;1.70;99.90
2723;DHT22;1369;53.216;10.396;2024-01-30T05:52:55;1.70;99.90
2723;DHT22;1369;53.216;10.396;2024-01-30T05:55:21;1.60;99.90
2723;DHT22;1369;53.216;10.396;2024-01-30T05:57:47;1.60;99.90
2723;DHT22;1369;53.216;10.396;2024-01-30T06:00:13;1.60;99.90
2723;DHT22;1369;53.216;10.396;2024-01-30T06:02:39;1.60;99.90
2723;DHT22;1369;53.216;10.396;2024-01-30T06:05:05;1.60;99.90
2723;DHT22;1369;53.216;10.396;2024-01-30T06:07:31;1.60;99.90
2723;DHT22;1369;53.216;10.396;2024-01-30T06:09:57;1.60;99.90
2723;DHT22;1369;53.216;10.396;2024-01-30T06:12:23;1.60;99.90
2723;DHT22;1369;53.216;10.396;2024-01-30T06:14:48;1.60;99.90
2723;DHT22;1369;53.216;10.396;2024-01-30T06:17:14;1.60;99.90
2723;DHT22;1369;53.216;10.396;2024-01-30T06:19:40;1.60;99.90
2723;DHT22;1369;53.216;10.396;2024-01-30T06:22:05;1.60;99.90
2723;DHT22;1369;53.216;10.396;2024-01-30T06:24:31;1.60;99.90
2723;DHT22;1369;53.216;10.396;2024-01-30T06:26:56;1.60;99.90
2723;DHT22;1369;53.216;10.396;2024-01-30T06:29:22;1.60;99.90
2723;DHT22;1369;53.216;10.396;2024-01-30T06:31:50;1.70;99.90
2723;DHT22;1369;53.216;10.396;2024-01-30T06:34:16;1.70;99.90
2723;DHT22;1369;53.216;10.396;2024-01-30T06:36:41;1.70;99.90
2723;DHT22;1369;53.216;10.396;2024-01-30T06:39:07;1.70;99.90
2723;DHT22;1369;53.216;10.396;2024-01-30T06:41:33;1.70;99.90
2723;DHT22;1369;53.216;10.396;2024-01-30T06:43:59;1.80;99.90
2723;DHT22;1369;53.216;10.396;2024-01-30T06:46:24;1.80;99.90
2723;DHT22;1369;53.216;10.396;2024-01-30T06:48:50;1.80;99.90
2723;DHT22;1369;53.216;10.396;2024-01-30T06:51:16;1.90;99.90
2723;DHT22;1369;53.216;10.396;2024-01-30T06:53:41;2.00;99.90
2723;DHT22;1369;53.216;10.396;2024-01-30T06:56:08;2.00;99.90
2723;DHT22;1369;53.216;10.396;2024-01-30T06:58:33;2.10;99.90
2723;DHT22;1369;53.216;10.396;2024-01-30T07:00:59;2.10;99.90
2723;DHT22;1369;53.216;10.396;2024-01-30T07:03:24;2.20;99.90
2723;DHT22;1369;53.216;10.396;2024-01-30T07:05:50;2.10;99.90
2723;DHT22;1369;53.216;10.396;2024-01-30T07:08:17;2.10;99.90
2723;DHT22;1369;53.216;10.396;2024-01-30T07:10:43;2.10;99.90
2723;DHT22;1369;53.216;10.396;2024-01-30T07:13:10;2.00;99.90
2723;DHT22;1369;53.216;10.396;2024-01-30T07:15:36;2.00;99.90
2723;DHT22;1369;53.216;10.396;2024-01-30T07:18:02;2.00;99.90
2723;DHT22;1369;53.216;10.396;2024-01-30T07:20:28;2.00;99.90
2723;DHT22;1369;53.216;10.396;2024-01-30T07:22:56;2.10;99.90
2723;DHT22;1369;53.216;10.396;2024-01-30T07:25:22;2.10;99.90
2723;DHT22;1369;53.216;10.396;2024-01-30T07:27:52;2.10;99.90
2723;DHT22;1369;53.216;10.396;2024-01-30T07:30:18;2.10;99.90
2723;DHT22;1369;53.216;10.396;2024-01-30T07:32:44;2.20;99.90
2723;DHT22;1369;53.216;10.396;2024-01-30T07:35:09;2.20;99.90
2723;DHT22;1369;53.216;10.396;2024-01-30T07:37:35;2.20;99.90
2723;DHT22;1369;53.216;10.396;2024-01-30T07:40:01;2.30;99.90
2723;DHT22;1369;53.216;10.396;2024-01-30T07:42:28;2.40;99.90
2723;DHT22;1369;53.216;10.396;2024-01-30T07:44:54;2.40;99.90
2723;DHT22;1369;53.216;10.396;2024-01-30T07:47:19;2.50;99.90
2723;DHT22;1369;53.216;10.396;2024-01-30T07:49:45;2.50;99.90
2723;DHT22;1369;53.216;10.396;2024-01-30T07:52:11;2.50;99.90
2723;DHT22;1369;53.216;10.396;2024-01-30T07:54:37;2.60;99.90
2723;DHT22;1369;53.216;10.396;2024-01-30T07:57:04;2.70;99.90
2723;DHT22;1369;53.216;10.396;2024-01-30T07:59:30;2.70;99.90
2723;DHT22;1369;53.216;10.396;2024-01-30T08:01:55;2.80;99.90
2723;DHT22;1369;53.216;10.396;2024-01-30T08:04:21;2.80;99.90
2723;DHT22;1369;53.216;10.396;2024-01-30T08:06:47;2.90;99.90
2723;DHT22;1369;53.216;10.396;2024-01-30T08:09:12;3.10;99.90
2723;DHT22;1369;53.216;10.396;2024-01-30T08:11:38;3.10;99.90
2723;DHT22;1369;53.216;10.396;2024-01-30T08:14:03;3.20;99.90
2723;DHT22;1369;53.216;10.396;2024-01-30T08:16:29;3.20;99.90
2723;DHT22;1369;53.216;10.396;2024-01-30T08:18:55;3.20;99.90
2723;DHT22;1369;53.216;10.396;2024-01-30T08:21:23;3.20;99.90
2723;DHT22;1369;53.216;10.396;2024-01-30T08:23:49;3.30;99.90
2723;DHT22;1369;53.216;10.396;2024-01-30T08:26:15;3.30;99.90
2723;DHT22;1369;53.216;10.396;2024-01-30T08:28:41;3.40;99.90
2723;DHT22;1369;53.216;10.396;2024-01-30T08:31:07;3.50;99.90
2723;DHT22;1369;53.216;10.396;2024-01-30T08:33:32;3.60;99.90
2723;DHT22;1369;53.216;10.396;2024-01-30T08:35:58;3.70;99.90
2723;DHT22;1369;53.216;10.396;2024-01-30T08:38:24;3.70;99.90
2723;DHT22;1369;53.216;10.396;2024-01-30T08:40:50;3.80;99.90
2723;DHT22;1369;53.216;10.396;2024-01-30T08:43:16;3.80;99.90
2723;DHT22;1369;53.216;10.396;2024-01-30T08:45:42;3.80;99.90
2723;DHT22;1369;53.216;10.396;2024-01-30T08:48:07;3.90;99.90
2723;DHT22;1369;53.216;10.396;2024-01-30T08:50:34;3.90;99.90
2723;DHT22;1369;53.216;10.396;2024-01-30T08:53:00;4.00;99.90
2723;DHT22;1369;53.216;10.396;2024-01-30T08:55:25;4.00;99.90
2723;DHT22;1369;53.216;10.396;2024-01-30T08:57:51;4.10;99.90
2723;DHT22;1369;53.216;10.396;2024-01-30T09:00:17;4.10;99.90
2723;DHT22;1369;53.216;10.396;2024-01-30T09:02:43;4.20;99.90
2723;DHT22;1369;53.216;10.396;2024-01-30T09:05:09;4.30;99.90
2723;DHT22;1369;53.216;10.396;2024-01-30T09:07:34;4.30;99.90
2723;DHT22;1369;53.216;10.396;2024-01-30T09:10:00;4.40;99.90
2723;DHT22;1369;53.216;10.396;2024-01-30T09:12:25;4.40;99.90
2723;DHT22;1369;53.216;10.396;2024-01-30T09:14:51;4.50;99.90
2723;DHT22;1369;53.216;10.396;2024-01-30T09:17:17;4.60;99.90
2723;DHT22;1369;53.216;10.396;2024-01-30T09:19:42;4.70;99.90
2723;DHT22;1369;53.216;10.396;2024-01-30T09:22:08;4.80;99.90
2723;DHT22;1369;53.216;10.396;2024-01-30T09:24:34;4.80;99.90
2723;DHT22;1369;53.216;10.396;2024-01-30T09:27:00;4.90;99.90
2723;DHT22;1369;53.216;10.396;2024-01-30T09:29:25;5.00;99.90
2723;DHT22;1369;53.216;10.396;2024-01-30T09:31:51;5.10;99.90
2723;DHT22;1369;53.216;10.396;2024-01-30T09:34:17;5.20;99.90
2723;DHT22;1369;53.216;10.396;2024-01-30T09:36:47;5.40;99.90
2723;DHT22;1369;53.216;10.396;2024-01-30T09:39:53;5.50;99.90
2723;DHT22;1369;53.216;10.396;2024-01-30T09:43:04;5.70;99.90
2723;DHT22;1369;53.216;10.396;2024-01-30T09:49:27;6.00;99.90
2723;DHT22;1369;53.216;10.396;2024-01-30T09:52:37;6.10;99.90
2723;DHT22;1369;53.216;10.396;2024-01-30T09:55:13;6.30;99.90
2723;DHT22;1369;53.216;10.396;2024-01-30T09:58:11;6.40;99.90
2723;DHT22;1369;53.216;10.396;2024-01-30T10:00:54;6.50;99.90
2723;DHT22;1369;53.216;10.396;2024-01-30T10:03:28;6.50;99.90
2723;DHT22;1369;53.216;10.396;2024-01-30T10:10:34;6.70;99.90
2723;DHT22;1369;53.216;10.396;2024-01-30T10:17:01;6.90;99.90
2723;DHT22;1369;53.216;10.396;2024-01-30T10:19:33;7.00;99.90
2723;DHT22;1369;53.216;10.396;2024-01-30T10:22:26;7.10;99.90
2723;DHT22;1369;53.216;10.396;2024-01-30T10:25:14;7.20;99.90
2723;DHT22;1369;53.216;10.396;2024-01-30T10:27:43;7.40;99.90
2723;DHT22;1369;53.216;10.396;2024-01-30T10:30:38;7.40;99.90
2723;DHT22;1369;53.216;10.396;2024-01-30T10:33:23;7.50;99.90
2723;DHT22;1369;53.216;10.396;2024-01-30T10:35:51;7.70;99.90
2723;DHT22;1369;53.216;10.396;2024-01-30T10:38:20;7.80;99.90
2723;DHT22;1369;53.216;10.396;2024-01-30T10:40:48;7.90;99.90
2723;DHT22;1369;53.216;10.396;2024-01-30T10:43:21;8.00;99.90
2723;DHT22;1369;53.216;10.396;2024-01-30T10:45:49;8.00;99.90
2723;DHT22;1369;53.216;10.396;2024-01-30T10:48:19;8.10;99.90
2723;DHT22;1369;53.216;10.396;2024-01-30T10:50:47;8.10;99.90
2723;DHT22;1369;53.216;10.396;2024-01-30T10:53:13;8.20;99.90
2723;DHT22;1369;53.216;10.396;2024-01-30T10:55:39;8.20;99.90
2723;DHT22;1369;53.216;10.396;2024-01-30T10:58:06;8.30;99.90
2723;DHT22;1369;53.216;10.396;2024-01-30T11:00:32;8.40;99.90
2723;DHT22;1369;53.216;10.396;2024-01-30T11:03:00;8.50;99.90
2723;DHT22;1369;53.216;10.396;2024-01-30T11:05:26;8.60;99.90
2723;DHT22;1369;53.216;10.396;2024-01-30T11:07:53;8.60;99.90
2723;DHT22;1369;53.216;10.396;2024-01-30T11:10:19;8.70;99.90
2723;DHT22;1369;53.216;10.396;2024-01-30T11:12:46;8.80;99.90
2723;DHT22;1369;53.216;10.396;2024-01-30T11:15:16;8.90;99.90
2723;DHT22;1369;53.216;10.396;2024-01-30T11:20:21;9.00;99.90
2723;DHT22;1369;53.216;10.396;2024-01-30T11:22:50;9.00;99.90
2723;DHT22;1369;53.216;10.396;2024-01-30T11:25:17;9.10;99.90
2723;DHT22;1369;53.216;10.396;2024-01-30T11:27:45;9.20;99.90
2723;DHT22;1369;53.216;10.396;2024-01-30T11:30:27;9.20;99.90
2723;DHT22;1369;53.216;10.396;2024-01-30T11:35:33;9.30;99.90
2723;DHT22;1369;53.216;10.396;2024-01-30T11:38:00;9.40;99.90
2723;DHT22;1369;53.216;10.396;2024-01-30T11:40:28;9.40;99.90
2723;DHT22;1369;53.216;10.396;2024-01-30T11:42:59;9.40;99.90
2723;DHT22;1369;53.216;10.396;2024-01-30T11:45:25;9.50;99.90
2723;DHT22;1369;53.216;10.396;2024-01-30T11:47:51;9.60;99.90
2723;DHT22;1369;53.216;10.396;2024-01-30T11:50:17;9.60;99.90
2723;DHT22;1369;53.216;10.396;2024-01-30T11:52:43;9.70;99.90
2723;DHT22;1369;53.216;10.396;2024-01-30T11:55:09;9.70;99.90
2723;DHT22;1369;53.216;10.396;2024-01-30T11:57:35;9.70;99.90
2723;DHT22;1369;53.216;10.396;2024-01-30T12:00:03;9.80;99.90
2723;DHT22;1369;53.216;10.396;2024-01-30T12:02:34;9.80;99.90
2723;DHT22;1369;53.216;10.396;2024-01-30T12:05:04;9.90;99.90
2723;DHT22;1369;53.216;10.396;2024-01-30T12:07:30;9.90;99.90
2723;DHT22;1369;53.216;10.396;2024-01-30T12:09:56;10.00;99.90
2723;DHT22;1369;53.216;10.396;2024-01-30T12:12:24;10.00;99.90
2723;DHT22;1369;53.216;10.396;2024-01-30T12:14:49;10.00;99.90
2723;DHT22;1369;53.216;10.396;2024-01-30T12:17:31;10.00;99.90
2723;DHT22;1369;53.216;10.396;2024-01-30T12:20:08;10.00;99.90
2723;DHT22;1369;53.216;10.396;2024-01-30T12:22:40;10.10;99.90
2723;DHT22;1369;53.216;10.396;2024-01-30T12:25:13;10.10;99.90
2723;DHT22;1369;53.216;10.396;2024-01-30T12:27:43;10.10;99.90
2723;DHT22;1369;53.216;10.396;2024-01-30T12:30:13;10.10;99.90
2723;DHT22;1369;53.216;10.396;2024-01-30T12:32:41;10.10;99.90
2723;DHT22;1369;53.216;10.396;2024-01-30T12:35:19;10.10;99.90
2723;DHT22;1369;53.216;10.396;2024-01-30T12:37:47;10.10;99.90
2723;DHT22;1369;53.216;10.396;2024-01-30T12:40:14;10.20;99.90
2723;DHT22;1369;53.216;10.396;2024-01-30T12:42:43;10.20;99.90
2723;DHT22;1369;53.216;10.396;2024-01-30T12:45:11;10.20;99.90
2723;DHT22;1369;53.216;10.396;2024-01-30T12:47:41;10.30;99.90
2723;DHT22;1369;53.216;10.396;2024-01-30T12:50:08;10.30;99.90
2723;DHT22;1369;53.216;10.396;2024-01-30T12:52:35;10.30;99.90
2723;DHT22;1369;53.216;10.396;2024-01-30T12:55:02;10.30;99.90
2723;DHT22;1369;53.216;10.396;2024-01-30T12:57:31;10.30;99.90
2723;DHT22;1369;53.216;10.396;2024-01-30T12:59:56;10.30;99.90
2723;DHT22;1369;53.216;10.396;2024-01-30T13:02:22;10.30;99.90
2723;DHT22;1369;53.216;10.396;2024-01-30T13:04:48;10.30;99.90
2723;DHT22;1369;53.216;10.396;2024-01-30T13:07:14;10.30;99.90
2723;DHT22;1369;53.216;10.396;2024-01-30T13:09:40;10.20;99.90
2723;DHT22;1369;53.216;10.396;2024-01-30T13:12:06;10.20;99.90
2723;DHT22;1369;53.216;10.396;2024-01-30T13:14:32;10.20;99.90
2723;DHT22;1369;53.216;10.396;2024-01-30T13:16:58;10.20;99.90
2723;DHT22;1369;53.216;10.396;2024-01-30T13:19:23;10.20;99.90
2723;DHT22;1369;53.216;10.396;2024-01-30T13:21:49;10.10;99.90
2723;DHT22;1369;53.216;10.396;2024-01-30T13:24:14;10.10;99.90
2723;DHT22;1369;53.216;10.396;2024-01-30T13:26:42;10.10;99.90
2723;DHT22;1369;53.216;10.396;2024-01-30T13:29:07;10.10;99.90
2723;DHT22;1369;53.216;10.396;2024-01-30T13:31:33;10.10;99.90
2723;DHT22;1369;53.216;10.396;2024-01-30T13:34:00;10.10;99.90
2723;DHT22;1369;53.216;10.396;2024-01-30T13:36:25;10.10;99.90
2723;DHT22;1369;53.216;10.396;2024-01-30T13:38:51;10.10;99.90
2723;DHT22;1369;53.216;10.396;2024-01-30T13:41:17;10.10;99.90
2723;DHT22;1369;53.216;10.396;2024-01-30T13:43:43;10.00;99.90
2723;DHT22;1369;53.216;10.396;2024-01-30T13:46:10;10.00;99.90
2723;DHT22;1369;53.216;10.396;2024-01-30T13:48:35;10.00;99.90
2723;DHT22;1369;53.216;10.396;2024-01-30T13:51:02;10.00;99.90
2723;DHT22;1369;53.216;10.396;2024-01-30T13:53:30;10.00;99.90
2723;DHT22;1369;53.216;10.396;2024-01-30T13:55:55;10.00;99.90
2723;DHT22;1369;53.216;10.396;2024-01-30T13:58:21;10.00;99.90
2723;DHT22;1369;53.216;10.396;2024-01-30T14:00:47;10.00;99.90
2723;DHT22;1369;53.216;10.396;2024-01-30T14:03:12;10.00;99.90
2723;DHT22;1369;53.216;10.396;2024-01-30T14:05:38;10.00;99.90
2723;DHT22;1369;53.216;10.396;2024-01-30T14:08:04;10.00;99.90
2723;DHT22;1369;53.216;10.396;2024-01-30T14:10:30;10.00;99.90
2723;DHT22;1369;53.216;10.396;2024-01-30T14:12:56;10.00;99.90
2723;DHT22;1369;53.216;10.396;2024-01-30T14:15:22;10.00;99.90
2723;DHT22;1369;53.216;10.396;2024-01-30T14:17:48;10.00;99.90
2723;DHT22;1369;53.216;10.396;2024-01-30T14:20:15;10.00;99.90
2723;DHT22;1369;53.216;10.396;2024-01-30T14:22:43;10.00;99.90
2723;DHT22;1369;53.216;10.396;2024-01-30T14:25:09;10.00;99.90
2723;DHT22;1369;53.216;10.396;2024-01-30T14:27:36;10.00;99.90
2723;DHT22;1369;53.216;10.396;2024-01-30T14:30:02;10.00;99.90
2723;DHT22;1369;53.216;10.396;2024-01-30T14:32:28;10.00;99.90
2723;DHT22;1369;53.216;10.396;2024-01-30T14:34:54;10.00;99.90
2723;DHT22;1369;53.216;10.396;2024-01-30T14:37:21;10.00;99.90
2723;DHT22;1369;53.216;10.396;2024-01-30T14:39:47;10.00;99.90
2723;DHT22;1369;53.216;10.396;2024-01-30T14:42:14;10.00;99.90
2723;DHT22;1369;53.216;10.396;2024-01-30T14:44:40;9.90;99.90
2723;DHT22;1369;53.216;10.396;2024-01-30T14:47:05;9.90;99.90
2723;DHT22;1369;53.216;10.396;2024-01-30T14:49:31;9.90;99.90
2723;DHT22;1369;53.216;10.396;2024-01-30T15:00:33;9.90;99.90
2723;DHT22;1369;53.216;10.396;2024-01-30T15:02:58;9.90;99.90
2723;DHT22;1369;53.216;10.396;2024-01-30T15:05:24;9.90;99.90
2723;DHT22;1369;53.216;10.396;2024-01-30T15:07:49;9.90;99.90
2723;DHT22;1369;53.216;10.396;2024-01-30T15:10:15;10.00;99.90
2723;DHT22;1369;53.216;10.396;2024-01-30T15:12:40;9.90;99.90
2723;DHT22;1369;53.216;10.396;2024-01-30T15:15:09;10.00;99.90
2723;DHT22;1369;53.216;10.396;2024-01-30T15:17:35;10.00;99.90
2723;DHT22;1369;53.216;10.396;2024-01-30T15:20:00;10.00;99.90
2723;DHT22;1369;53.216;10.396;2024-01-30T15:22:26;9.90;99.90
2723;DHT22;1369;53.216;10.396;2024-01-30T15:24:52;10.00;99.90
2723;DHT22;1369;53.216;10.396;2024-01-30T15:27:17;9.90;99.90
2723;DHT22;1369;53.216;10.396;2024-01-30T15:29:45;9.90;99.90
2723;DHT22;1369;53.216;10.396;2024-01-30T15:32:10;10.00;99.90
2723;DHT22;1369;53.216;10.396;2024-01-30T15:34:36;9.90;99.90
2723;DHT22;1369;53.216;10.396;2024-01-30T15:37:02;9.90;99.90
2723;DHT22;1369;53.216;10.396;2024-01-30T15:39:28;9.90;99.90
2723;DHT22;1369;53.216;10.396;2024-01-30T15:41:54;9.90;99.90
2723;DHT22;1369;53.216;10.396;2024-01-30T15:44:19;9.90;99.90
2723;DHT22;1369;53.216;10.396;2024-01-30T15:46:45;9.90;99.90
2723;DHT22;1369;53.216;10.396;2024-01-30T15:49:11;9.90;99.90
2723;DHT22;1369;53.216;10.396;2024-01-30T15:51:36;10.00;99.90
2723;DHT22;1369;53.216;10.396;2024-01-30T15:54:02;9.90;99.90
2723;DHT22;1369;53.216;10.396;2024-01-30T15:56:28;9.90;99.90
2723;DHT22;1369;53.216;10.396;2024-01-30T15:58:53;9.90;99.90
2723;DHT22;1369;53.216;10.396;2024-01-30T16:01:19;10.00;99.90
2723;DHT22;1369;53.216;10.396;2024-01-30T16:03:44;9.90;99.90
2723;DHT22;1369;53.216;10.396;2024-01-30T16:06:11;10.00;99.90
2723;DHT22;1369;53.216;10.396;2024-01-30T16:08:37;10.00;99.90
2723;DHT22;1369;53.216;10.396;2024-01-30T16:11:03;10.00;99.90
2723;DHT22;1369;53.216;10.396;2024-01-30T16:13:32;10.00;99.90
2723;DHT22;1369;53.216;10.396;2024-01-30T16:15:57;10.00;99.90
2723;DHT22;1369;53.216;10.396;2024-01-30T16:18:23;10.00;99.90
2723;DHT22;1369;53.216;10.396;2024-01-30T16:20:51;10.00;99.90
2723;DHT22;1369;53.216;10.396;2024-01-30T16:23:16;9.90;99.90
2723;DHT22;1369;53.216;10.396;2024-01-30T16:25:42;9.90;99.90